sensor_id;sensor_type;location;lat;lon;timestamp;pressure;altitude;pressure_sealevel;temperature;humidity
77023;BME280;65952;51.440;-2.054;2023-03-24T00:01:46;98222.00;;;8.27;81.35
77023;BME280;65952;51.440;-2.054;2023-03-24T00:04:12;98227.56;;;8.26;81.02
77023;BME280;65952;51.440;-2.054;2023-03-24T00:06:38;98220.16;;;8.21;80.88
77023;BME280;65952;51.440;-2.054;2023-03-24T00:09:03;98225.31;;;8.23;80.81
77023;BME280;65952;51.440;-2.054;2023-03-24T00:11:30;98232.91;;;8.19;80.76
77023;BME280;65952;51.440;-2.054;2023-03-24T00:13:58;98233.53;;;8.14;80.82
77023;BME280;65952;51.440;-2.054;2023-03-24T00:16:24;98231.06;;;8.20;80.38
77023;BME280;65952;51.440;-2.054;2023-03-24T00:18:50;98233.13;;;8.18;80.38
77023;BME280;65952;51.440;-2.054;2023-03-24T00:21:17;98238.47;;;8.18;80.13
77023;BME280;65952;51.440;-2.054;2023-03-24T00:23:46;98234.75;;;8.19;80.06
77023;BME280;65952;51.440;-2.054;2023-03-24T00:26:14;98244.00;;;8.16;79.95
77023;BME280;65952;51.440;-2.054;2023-03-24T00:28:42;98246.69;;;8.09;80.15
77023;BME280;65952;51.440;-2.054;2023-03-24T00:31:08;98253.25;;;8.13;80.24
77023;BME280;65952;51.440;-2.054;2023-03-24T00:33:35;98252.66;;;8.11;79.86
77023;BME280;65952;51.440;-2.054;2023-03-24T00:36:05;98247.47;;;8.03;80.21
77023;BME280;65952;51.440;-2.054;2023-03-24T00:38:33;98252.41;;;8.00;79.94
77023;BME280;65952;51.440;-2.054;2023-03-24T00:41:00;98256.53;;;8.02;79.71
77023;BME280;65952;51.440;-2.054;2023-03-24T00:43:27;98260.00;;;7.96;80.03
77023;BME280;65952;51.440;-2.054;2023-03-24T00:46:19;98261.84;;;7.89;80.08
77023;BME280;65952;51.440;-2.054;2023-03-24T00:49:03;98270.25;;;7.86;80.03
77023;BME280;65952;51.440;-2.054;2023-03-24T00:51:35;98274.16;;;7.90;80.01
77023;BME280;65952;51.440;-2.054;2023-03-24T00:54:01;98274.56;;;7.87;79.89
77023;BME280;65952;51.440;-2.054;2023-03-24T00:56:29;98277.41;;;7.78;79.98
77023;BME280;65952;51.440;-2.054;2023-03-24T00:58:56;98278.84;;;7.81;79.81
77023;BME280;65952;51.440;-2.054;2023-03-24T01:01:25;98275.00;;;7.84;79.58
77023;BME280;65952;51.440;-2.054;2023-03-24T01:03:52;98290.19;;;7.83;79.47
77023;BME280;65952;51.440;-2.054;2023-03-24T01:06:18;98289.31;;;7.76;79.80
77023;BME280;65952;51.440;-2.054;2023-03-24T01:08:47;98292.41;;;7.79;79.70
77023;BME280;65952;51.440;-2.054;2023-03-24T01:11:13;98299.00;;;7.77;79.60
77023;BME280;65952;51.440;-2.054;2023-03-24T01:13:41;98298.34;;;7.68;80.07
77023;BME280;65952;51.440;-2.054;2023-03-24T01:16:07;98308.41;;;7.66;79.93
77023;BME280;65952;51.440;-2.054;2023-03-24T01:18:33;98311.47;;;7.63;79.88
77023;BME280;65952;51.440;-2.054;2023-03-24T01:20:59;98313.94;;;7.64;79.75
77023;BME280;65952;51.440;-2.054;2023-03-24T01:23:26;98319.69;;;7.61;79.72
77023;BME280;65952;51.440;-2.054;2023-03-24T01:25:52;98325.44;;;7.65;79.55
77023;BME280;65952;51.440;-2.054;2023-03-24T01:28:20;98329.13;;;7.64;79.62
77023;BME280;65952;51.440;-2.054;2023-03-24T01:30:48;98329.13;;;7.57;79.46
77023;BME280;65952;51.440;-2.054;2023-03-24T01:33:14;98333.63;;;7.57;79.43
77023;BME280;65952;51.440;-2.054;2023-03-24T01:35:40;98343.25;;;7.51;79.72
77023;BME280;65952;51.440;-2.054;2023-03-24T01:38:07;98342.19;;;7.45;79.95
77023;BME280;65952;51.440;-2.054;2023-03-24T01:40:34;98343.03;;;7.53;79.55
77023;BME280;65952;51.440;-2.054;2023-03-24T01:43:00;98345.09;;;7.51;79.20
77023;BME280;65952;51.440;-2.054;2023-03-24T01:45:47;98343.25;;;7.51;79.25
77023;BME280;65952;51.440;-2.054;2023-03-24T01:48:18;98348.38;;;7.53;79.36
77023;BME280;65952;51.440;-2.054;2023-03-24T01:50:49;98351.41;;;7.43;79.76
77023;BME280;65952;51.440;-2.054;2023-03-24T01:53:16;98355.31;;;7.47;79.41
77023;BME280;65952;51.440;-2.054;2023-03-24T01:55:44;98364.19;;;7.47;79.37
77023;BME280;65952;51.440;-2.054;2023-03-24T01:58:11;98352.25;;;7.43;79.65
77023;BME280;65952;51.440;-2.054;2023-03-24T02:00:37;98354.03;;;7.36;79.71
77023;BME280;65952;51.440;-2.054;2023-03-24T02:03:07;98369.81;;;7.31;79.90
77023;BME280;65952;51.440;-2.054;2023-03-24T02:05:36;98362.44;;;7.33;79.90
77023;BME280;65952;51.440;-2.054;2023-03-24T02:08:14;98370.44;;;7.33;79.93
77023;BME280;65952;51.440;-2.054;2023-03-24T02:10:41;98372.72;;;7.36;79.54
77023;BME280;65952;51.440;-2.054;2023-03-24T02:13:08;98371.28;;;7.34;79.61
77023;BME280;65952;51.440;-2.054;2023-03-24T02:15:55;98370.84;;;7.30;79.62
77023;BME280;65952;51.440;-2.054;2023-03-24T02:18:46;98367.03;;;7.18;79.94
77023;BME280;65952;51.440;-2.054;2023-03-24T02:36:04;98366.16;;;7.10;79.53
77023;BME280;65952;51.440;-2.054;2023-03-24T02:38:56;98372.66;;;7.01;79.84
77023;BME280;65952;51.440;-2.054;2023-03-24T02:41:39;98374.13;;;7.04;79.92
77023;BME280;65952;51.440;-2.054;2023-03-24T02:44:20;98372.28;;;7.04;79.60
77023;BME280;65952;51.440;-2.054;2023-03-24T02:47:52;98378.81;;;7.02;79.57
77023;BME280;65952;51.440;-2.054;2023-03-24T02:50:24;98359.09;;;6.96;79.84
77023;BME280;65952;51.440;-2.054;2023-03-24T02:53:10;98373.50;;;7.02;79.47
77023;BME280;65952;51.440;-2.054;2023-03-24T02:55:52;98375.53;;;6.99;79.70
77023;BME280;65952;51.440;-2.054;2023-03-24T03:00:54;98364.56;;;6.88;79.75
77023;BME280;65952;51.440;-2.054;2023-03-24T03:03:30;98368.09;;;6.95;79.61
77023;BME280;65952;51.440;-2.054;2023-03-24T03:06:04;98365.19;;;6.90;79.53
77023;BME280;65952;51.440;-2.054;2023-03-24T03:08:32;98369.63;;;6.82;79.57
77023;BME280;65952;51.440;-2.054;2023-03-24T03:11:00;98378.72;;;6.88;79.65
77023;BME280;65952;51.440;-2.054;2023-03-24T03:13:29;98370.66;;;6.81;79.71
77023;BME280;65952;51.440;-2.054;2023-03-24T03:16:00;98368.19;;;6.80;79.81
77023;BME280;65952;51.440;-2.054;2023-03-24T03:18:31;98365.16;;;6.83;79.86
77023;BME280;65952;51.440;-2.054;2023-03-24T03:21:12;98361.06;;;6.87;79.22
77023;BME280;65952;51.440;-2.054;2023-03-24T03:23:50;98364.88;;;6.78;79.49
77023;BME280;65952;51.440;-2.054;2023-03-24T03:26:18;98357.72;;;6.78;79.57
77023;BME280;65952;51.440;-2.054;2023-03-24T03:28:51;98368.13;;;6.73;79.59
77023;BME280;65952;51.440;-2.054;2023-03-24T03:31:24;98372.25;;;6.76;79.42
77023;BME280;65952;51.440;-2.054;2023-03-24T03:34:12;98365.81;;;6.70;79.81
77023;BME280;65952;51.440;-2.054;2023-03-24T03:39:27;98369.13;;;6.72;79.92
77023;BME280;65952;51.440;-2.054;2023-03-24T03:41:54;98372.25;;;6.76;79.79
77023;BME280;65952;51.440;-2.054;2023-03-24T03:44:20;98382.66;;;6.71;80.30
77023;BME280;65952;51.440;-2.054;2023-03-24T03:46:45;98381.38;;;6.66;80.62
77023;BME280;65952;51.440;-2.054;2023-03-24T03:49:11;98375.69;;;6.70;80.12
77023;BME280;65952;51.440;-2.054;2023-03-24T03:51:36;98375.88;;;6.68;80.06
77023;BME280;65952;51.440;-2.054;2023-03-24T03:54:05;98379.56;;;6.67;80.15
77023;BME280;65952;51.440;-2.054;2023-03-24T03:56:34;98369.25;;;6.64;80.04
77023;BME280;65952;51.440;-2.054;2023-03-24T03:59:01;98365.22;;;6.68;79.74
77023;BME280;65952;51.440;-2.054;2023-03-24T04:01:28;98372.75;;;6.64;80.03
77023;BME280;65952;51.440;-2.054;2023-03-24T04:07:22;98363.75;;;6.65;79.42
77023;BME280;65952;51.440;-2.054;2023-03-24T04:10:17;98357.97;;;6.62;79.52
77023;BME280;65952;51.440;-2.054;2023-03-24T04:13:02;98358.34;;;6.59;79.31
77023;BME280;65952;51.440;-2.054;2023-03-24T04:23:50;98366.72;;;6.56;79.12
77023;BME280;65952;51.440;-2.054;2023-03-24T04:26:26;98363.50;;;6.60;78.81
77023;BME280;65952;51.440;-2.054;2023-03-24T04:31:52;98361.59;;;6.54;79.13
77023;BME280;65952;51.440;-2.054;2023-03-24T04:34:27;98370.41;;;6.55;78.93
77023;BME280;65952;51.440;-2.054;2023-03-24T04:37:00;98366.84;;;6.47;79.38
77023;BME280;65952;51.440;-2.054;2023-03-24T04:39:27;98371.81;;;6.50;79.02
77023;BME280;65952;51.440;-2.054;2023-03-24T04:42:00;98367.50;;;6.49;79.03
77023;BME280;65952;51.440;-2.054;2023-03-24T04:44:28;98377.69;;;6.46;78.90
77023;BME280;65952;51.440;-2.054;2023-03-24T04:46:58;98370.50;;;6.46;79.13
77023;BME280;65952;51.440;-2.054;2023-03-24T04:49:25;98377.94;;;6.51;78.75
77023;BME280;65952;51.440;-2.054;2023-03-24T04:51:51;98374.34;;;6.59;78.68
77023;BME280;65952;51.440;-2.054;2023-03-24T04:54:19;98369.41;;;6.56;78.88
77023;BME280;65952;51.440;-2.054;2023-03-24T04:56:48;98368.19;;;6.58;78.95
77023;BME280;65952;51.440;-2.054;2023-03-24T04:59:14;98377.84;;;6.59;79.12
77023;BME280;65952;51.440;-2.054;2023-03-24T05:01:41;98357.88;;;6.55;79.31
77023;BME280;65952;51.440;-2.054;2023-03-24T05:04:15;98370.41;;;6.55;79.64
77023;BME280;65952;51.440;-2.054;2023-03-24T05:06:40;98372.44;;;6.53;79.88
77023;BME280;65952;51.440;-2.054;2023-03-24T05:09:06;98378.41;;;6.55;80.24
77023;BME280;65952;51.440;-2.054;2023-03-24T05:11:32;98377.84;;;6.59;79.76
77023;BME280;65952;51.440;-2.054;2023-03-24T05:13:57;98380.06;;;6.56;80.03
77023;BME280;65952;51.440;-2.054;2023-03-24T05:16:22;98384.88;;;6.67;79.78
77023;BME280;65952;51.440;-2.054;2023-03-24T05:18:48;98383.44;;;6.64;79.95
77023;BME280;65952;51.440;-2.054;2023-03-24T05:21:13;98388.97;;;6.63;80.00
77023;BME280;65952;51.440;-2.054;2023-03-24T05:23:38;98386.66;;;6.60;80.26
77023;BME280;65952;51.440;-2.054;2023-03-24T05:26:04;98404.31;;;6.61;80.79
77023;BME280;65952;51.440;-2.054;2023-03-24T05:28:30;98404.81;;;6.71;80.71
77023;BME280;65952;51.440;-2.054;2023-03-24T05:30:55;98411.41;;;6.75;81.31
77023;BME280;65952;51.440;-2.054;2023-03-24T05:33:21;98422.09;;;6.75;81.89
77023;BME280;65952;51.440;-2.054;2023-03-24T05:35:47;98413.97;;;6.83;81.95
77023;BME280;65952;51.440;-2.054;2023-03-24T05:38:12;98425.44;;;6.84;81.89
77023;BME280;65952;51.440;-2.054;2023-03-24T05:40:38;98428.31;;;6.82;82.60
77023;BME280;65952;51.440;-2.054;2023-03-24T05:43:03;98429.22;;;6.90;82.51
77023;BME280;65952;51.440;-2.054;2023-03-24T05:45:28;98432.13;;;6.95;82.33
77023;BME280;65952;51.440;-2.054;2023-03-24T05:47:55;98425.69;;;6.89;82.56
77023;BME280;65952;51.440;-2.054;2023-03-24T05:50:21;98435.19;;;6.92;82.79
77023;BME280;65952;51.440;-2.054;2023-03-24T05:52:47;98440.13;;;6.95;82.83
77023;BME280;65952;51.440;-2.054;2023-03-24T05:55:13;98445.47;;;6.95;82.98
77023;BME280;65952;51.440;-2.054;2023-03-24T05:57:40;98446.13;;;6.97;82.76
77023;BME280;65952;51.440;-2.054;2023-03-24T06:00:06;98436.47;;;6.96;82.70
77023;BME280;65952;51.440;-2.054;2023-03-24T06:02:37;98433.19;;;7.00;82.95
77023;BME280;65952;51.440;-2.054;2023-03-24T06:05:04;98448.28;;;7.08;82.38
77023;BME280;65952;51.440;-2.054;2023-03-24T06:07:32;98450.69;;;7.03;82.73
77023;BME280;65952;51.440;-2.054;2023-03-24T06:09:57;98438.81;;;7.06;82.87
77023;BME280;65952;51.440;-2.054;2023-03-24T06:12:27;98449.13;;;7.15;82.30
77023;BME280;65952;51.440;-2.054;2023-03-24T06:14:52;98445.47;;;7.16;82.13
77023;BME280;65952;51.440;-2.054;2023-03-24T06:17:17;98445.53;;;7.23;81.88
77023;BME280;65952;51.440;-2.054;2023-03-24T06:19:45;98462.34;;;7.24;81.63
77023;BME280;65952;51.440;-2.054;2023-03-24T06:22:17;98455.75;;;7.20;81.97
77023;BME280;65952;51.440;-2.054;2023-03-24T06:24:43;98460.50;;;7.24;81.94
77023;BME280;65952;51.440;-2.054;2023-03-24T06:27:10;98465.53;;;7.34;81.05
77023;BME280;65952;51.440;-2.054;2023-03-24T06:29:35;98463.69;;;7.35;80.93
77023;BME280;65952;51.440;-2.054;2023-03-24T06:32:01;98465.97;;;7.38;81.25
77023;BME280;65952;51.440;-2.054;2023-03-24T06:34:29;98475.22;;;7.42;81.10
77023;BME280;65952;51.440;-2.054;2023-03-24T06:36:56;98465.06;;;7.52;80.57
77023;BME280;65952;51.440;-2.054;2023-03-24T06:39:21;98472.47;;;7.57;80.44
77023;BME280;65952;51.440;-2.054;2023-03-24T06:41:48;98469.44;;;7.60;80.32
77023;BME280;65952;51.440;-2.054;2023-03-24T06:44:13;98463.16;;;7.74;79.84
77023;BME280;65952;51.440;-2.054;2023-03-24T06:46:38;98466.47;;;7.76;79.84
77023;BME280;65952;51.440;-2.054;2023-03-24T06:49:04;98471.88;;;7.90;79.73
77023;BME280;65952;51.440;-2.054;2023-03-24T06:51:30;98471.75;;;8.05;79.15
77023;BME280;65952;51.440;-2.054;2023-03-24T06:53:55;98470.38;;;8.16;78.66
77023;BME280;65952;51.440;-2.054;2023-03-24T06:56:20;98471.03;;;8.18;78.49
77023;BME280;65952;51.440;-2.054;2023-03-24T06:58:46;98475.09;;;8.13;78.60
77023;BME280;65952;51.440;-2.054;2023-03-24T07:01:13;98473.50;;;8.26;78.32
77023;BME280;65952;51.440;-2.054;2023-03-24T07:03:39;98474.81;;;8.37;77.46
77023;BME280;65952;51.440;-2.054;2023-03-24T07:06:07;98481.38;;;8.34;77.95
77023;BME280;65952;51.440;-2.054;2023-03-24T07:08:34;98485.53;;;8.43;77.59
77023;BME280;65952;51.440;-2.054;2023-03-24T07:11:00;98483.56;;;8.59;77.01
77023;BME280;65952;51.440;-2.054;2023-03-24T07:13:27;98486.69;;;8.69;76.95
77023;BME280;65952;51.440;-2.054;2023-03-24T07:15:52;98483.41;;;8.74;76.75
77023;BME280;65952;51.440;-2.054;2023-03-24T07:18:18;98482.66;;;9.00;75.88
77023;BME280;65952;51.440;-2.054;2023-03-24T07:20:44;98492.97;;;9.03;75.68
77023;BME280;65952;51.440;-2.054;2023-03-24T07:23:09;98482.44;;;9.02;75.54
77023;BME280;65952;51.440;-2.054;2023-03-24T07:25:35;98484.31;;;9.08;75.48
77023;BME280;65952;51.440;-2.054;2023-03-24T07:28:00;98482.88;;;9.19;75.53
77023;BME280;65952;51.440;-2.054;2023-03-24T07:30:25;98485.59;;;9.32;75.14
77023;BME280;65952;51.440;-2.054;2023-03-24T07:32:51;98485.19;;;9.49;74.78
77023;BME280;65952;51.440;-2.054;2023-03-24T07:35:18;98475.06;;;9.51;74.53
77023;BME280;65952;51.440;-2.054;2023-03-24T07:37:44;98478.38;;;9.53;74.70
77023;BME280;65952;51.440;-2.054;2023-03-24T07:40:10;98476.72;;;9.58;74.44
77023;BME280;65952;51.440;-2.054;2023-03-24T07:42:41;98479.41;;;9.65;74.48
77023;BME280;65952;51.440;-2.054;2023-03-24T07:45:11;98484.53;;;9.80;74.15
77023;BME280;65952;51.440;-2.054;2023-03-24T07:47:38;98486.72;;;10.23;72.71
77023;BME280;65952;51.440;-2.054;2023-03-24T07:50:07;98486.94;;;11.19;69.33
77023;BME280;65952;51.440;-2.054;2023-03-24T07:52:40;98480.97;;;12.49;65.08
77023;BME280;65952;51.440;-2.054;2023-03-24T07:55:09;98474.72;;;13.94;60.02
77023;BME280;65952;51.440;-2.054;2023-03-24T07:57:40;98488.44;;;14.69;57.69
77023;BME280;65952;51.440;-2.054;2023-03-24T08:00:10;98472.00;;;15.45;54.84
77023;BME280;65952;51.440;-2.054;2023-03-24T08:02:40;98485.06;;;16.21;52.95
77023;BME280;65952;51.440;-2.054;2023-03-24T08:05:06;98489.94;;;16.41;51.49
77023;BME280;65952;51.440;-2.054;2023-03-24T08:07:32;98503.22;;;16.43;52.11
77023;BME280;65952;51.440;-2.054;2023-03-24T08:09:58;98487.00;;;17.15;50.34
77023;BME280;65952;51.440;-2.054;2023-03-24T08:12:23;98498.41;;;17.49;49.27
77023;BME280;65952;51.440;-2.054;2023-03-24T08:14:49;98497.22;;;17.67;48.54
77023;BME280;65952;51.440;-2.054;2023-03-24T08:17:15;98500.19;;;17.06;49.52
77023;BME280;65952;51.440;-2.054;2023-03-24T08:19:42;98509.59;;;16.98;49.73
77023;BME280;65952;51.440;-2.054;2023-03-24T08:22:08;98492.63;;;17.73;48.40
77023;BME280;65952;51.440;-2.054;2023-03-24T08:24:34;98494.16;;;17.26;48.66
77023;BME280;65952;51.440;-2.054;2023-03-24T08:27:00;98502.59;;;17.02;49.94
77023;BME280;65952;51.440;-2.054;2023-03-24T08:29:30;98496.53;;;16.95;49.47
77023;BME280;65952;51.440;-2.054;2023-03-24T08:31:55;98497.31;;;17.45;48.18
77023;BME280;65952;51.440;-2.054;2023-03-24T08:34:21;98501.56;;;17.09;49.15
77023;BME280;65952;51.440;-2.054;2023-03-24T08:36:46;98487.72;;;16.61;50.16
77023;BME280;65952;51.440;-2.054;2023-03-24T08:39:12;98500.09;;;16.12;50.69
77023;BME280;65952;51.440;-2.054;2023-03-24T08:41:37;98499.44;;;15.54;52.19
77023;BME280;65952;51.440;-2.054;2023-03-24T08:44:03;98502.22;;;14.96;53.03
77023;BME280;65952;51.440;-2.054;2023-03-24T08:46:30;98498.25;;;15.16;52.73
77023;BME280;65952;51.440;-2.054;2023-03-24T08:48:57;98498.63;;;16.04;50.98
77023;BME280;65952;51.440;-2.054;2023-03-24T08:51:22;98509.41;;;16.61;48.34
77023;BME280;65952;51.440;-2.054;2023-03-24T08:53:48;98502.28;;;16.99;47.61
77023;BME280;65952;51.440;-2.054;2023-03-24T08:56:15;98495.34;;;18.06;45.21
77023;BME280;65952;51.440;-2.054;2023-03-24T08:58:41;98497.59;;;18.19;44.41
77023;BME280;65952;51.440;-2.054;2023-03-24T09:01:06;98510.03;;;17.77;44.09
77023;BME280;65952;51.440;-2.054;2023-03-24T09:03:33;98507.84;;;18.60;43.27
77023;BME280;65952;51.440;-2.054;2023-03-24T09:06:00;98495.69;;;18.19;43.75
77023;BME280;65952;51.440;-2.054;2023-03-24T09:08:25;98499.22;;;18.78;42.60
77023;BME280;65952;51.440;-2.054;2023-03-24T09:10:51;98496.81;;;18.82;42.53
77023;BME280;65952;51.440;-2.054;2023-03-24T09:13:17;98510.59;;;18.65;42.57
77023;BME280;65952;51.440;-2.054;2023-03-24T09:15:48;98512.28;;;18.87;43.14
77023;BME280;65952;51.440;-2.054;2023-03-24T09:18:14;98503.50;;;19.79;40.82
77023;BME280;65952;51.440;-2.054;2023-03-24T09:20:40;98513.56;;;19.99;39.41
77023;BME280;65952;51.440;-2.054;2023-03-24T09:23:05;98509.72;;;19.28;40.30
77023;BME280;65952;51.440;-2.054;2023-03-24T09:25:30;98501.81;;;19.26;40.83
77023;BME280;65952;51.440;-2.054;2023-03-24T09:27:56;98509.72;;;19.28;40.84
77023;BME280;65952;51.440;-2.054;2023-03-24T09:30:21;98516.09;;;17.90;43.47
77023;BME280;65952;51.440;-2.054;2023-03-24T09:32:47;98517.59;;;16.66;46.76
77023;BME280;65952;51.440;-2.054;2023-03-24T09:35:12;98520.41;;;15.47;50.09
77023;BME280;65952;51.440;-2.054;2023-03-24T09:37:39;98515.09;;;15.35;51.60
77023;BME280;65952;51.440;-2.054;2023-03-24T09:40:05;98516.34;;;15.15;52.76
77023;BME280;65952;51.440;-2.054;2023-03-24T09:42:34;98511.81;;;14.51;54.48
77023;BME280;65952;51.440;-2.054;2023-03-24T09:45:19;98524.91;;;14.07;55.66
77023;BME280;65952;51.440;-2.054;2023-03-24T09:47:50;98526.50;;;13.48;57.33
77023;BME280;65952;51.440;-2.054;2023-03-24T09:50:43;98527.19;;;13.44;57.38
77023;BME280;65952;51.440;-2.054;2023-03-24T09:55:47;98526.56;;;12.81;59.03
77023;BME280;65952;51.440;-2.054;2023-03-24T09:58:13;98531.72;;;13.13;58.68
77023;BME280;65952;51.440;-2.054;2023-03-24T10:00:39;98521.91;;;13.49;56.52
77023;BME280;65952;51.440;-2.054;2023-03-24T10:03:21;98528.06;;;13.80;54.89
77023;BME280;65952;51.440;-2.054;2023-03-24T10:06:05;98528.94;;;13.50;56.41
77023;BME280;65952;51.440;-2.054;2023-03-24T10:08:46;98520.63;;;13.21;56.74
77023;BME280;65952;51.440;-2.054;2023-03-24T10:11:24;98521.28;;;13.05;56.87
77023;BME280;65952;51.440;-2.054;2023-03-24T10:16:29;98518.69;;;14.18;53.81
77023;BME280;65952;51.440;-2.054;2023-03-24T10:19:00;98509.66;;;14.24;53.57
77023;BME280;65952;51.440;-2.054;2023-03-24T10:21:31;98510.59;;;14.06;54.22
77023;BME280;65952;51.440;-2.054;2023-03-24T10:24:28;98502.91;;;13.44;55.42
77023;BME280;65952;51.440;-2.054;2023-03-24T10:27:17;98510.94;;;13.01;57.16
77023;BME280;65952;51.440;-2.054;2023-03-24T10:29:46;98517.25;;;12.95;57.93
77023;BME280;65952;51.440;-2.054;2023-03-24T10:32:33;98517.63;;;12.99;58.14
77023;BME280;65952;51.440;-2.054;2023-03-24T10:35:00;98513.13;;;12.93;59.15
77023;BME280;65952;51.440;-2.054;2023-03-24T10:37:34;98514.31;;;12.66;60.08
77023;BME280;65952;51.440;-2.054;2023-03-24T10:40:00;98506.13;;;12.92;58.88
77023;BME280;65952;51.440;-2.054;2023-03-24T10:42:30;98506.38;;;13.32;58.34
77023;BME280;65952;51.440;-2.054;2023-03-24T10:44:57;98507.84;;;13.47;57.79
77023;BME280;65952;51.440;-2.054;2023-03-24T10:47:25;98499.09;;;13.33;57.14
77023;BME280;65952;51.440;-2.054;2023-03-24T10:49:57;98500.00;;;13.15;58.17
77023;BME280;65952;51.440;-2.054;2023-03-24T10:52:23;98509.44;;;12.75;59.66
77023;BME280;65952;51.440;-2.054;2023-03-24T10:54:56;98502.50;;;12.67;61.14
77023;BME280;65952;51.440;-2.054;2023-03-24T10:57:23;98509.69;;;12.37;61.56
77023;BME280;65952;51.440;-2.054;2023-03-24T10:59:56;98503.47;;;11.92;61.39
77023;BME280;65952;51.440;-2.054;2023-03-24T11:02:29;98506.41;;;11.65;61.33
77023;BME280;65952;51.440;-2.054;2023-03-24T11:04:58;98510.44;;;11.49;61.25
77023;BME280;65952;51.440;-2.054;2023-03-24T11:07:41;98508.75;;;11.30;62.08
77023;BME280;65952;51.440;-2.054;2023-03-24T11:12:37;98505.91;;;11.18;63.38
77023;BME280;65952;51.440;-2.054;2023-03-24T11:15:26;98504.47;;;11.22;62.48
77023;BME280;65952;51.440;-2.054;2023-03-24T11:18:05;98508.25;;;11.08;62.46
77023;BME280;65952;51.440;-2.054;2023-03-24T11:20:39;98518.13;;;11.14;62.33
77023;BME280;65952;51.440;-2.054;2023-03-24T11:28:38;98520.03;;;13.19;56.37
77023;BME280;65952;51.440;-2.054;2023-03-24T11:31:07;98514.63;;;13.38;55.74
77023;BME280;65952;51.440;-2.054;2023-03-24T11:33:41;98514.97;;;13.41;54.99
77023;BME280;65952;51.440;-2.054;2023-03-24T11:39:09;98513.25;;;13.59;55.62
77023;BME280;65952;51.440;-2.054;2023-03-24T11:41:37;98511.50;;;13.53;56.12
77023;BME280;65952;51.440;-2.054;2023-03-24T11:44:20;98510.59;;;13.28;56.72
77023;BME280;65952;51.440;-2.054;2023-03-24T11:47:09;98505.06;;;13.23;56.36
77023;BME280;65952;51.440;-2.054;2023-03-24T11:50:34;98496.94;;;13.42;55.84
77023;BME280;65952;51.440;-2.054;2023-03-24T11:55:28;98495.72;;;14.04;54.20
77023;BME280;65952;51.440;-2.054;2023-03-24T12:00:47;98487.84;;;14.14;54.58
77023;BME280;65952;51.440;-2.054;2023-03-24T12:09:28;98468.72;;;14.04;54.63
77023;BME280;65952;51.440;-2.054;2023-03-24T12:14:47;98461.53;;;14.21;54.48
77023;BME280;65952;51.440;-2.054;2023-03-24T12:17:23;98458.53;;;13.94;54.41
77023;BME280;65952;51.440;-2.054;2023-03-24T12:31:23;98450.97;;;14.32;55.54
77023;BME280;65952;51.440;-2.054;2023-03-24T12:36:50;98422.63;;;14.46;55.42
77023;BME280;65952;51.440;-2.054;2023-03-24T12:39:29;98430.19;;;14.73;56.37
77023;BME280;65952;51.440;-2.054;2023-03-24T12:42:12;98426.38;;;14.86;54.47
77023;BME280;65952;51.440;-2.054;2023-03-24T12:58:29;98454.16;;;12.73;66.94
77023;BME280;65952;51.440;-2.054;2023-03-24T13:03:41;98440.75;;;12.84;66.32
77023;BME280;65952;51.440;-2.054;2023-03-24T13:06:36;98432.81;;;12.90;65.11
77023;BME280;65952;51.440;-2.054;2023-03-24T13:09:12;98435.09;;;13.05;63.02
77023;BME280;65952;51.440;-2.054;2023-03-24T13:11:56;98436.38;;;12.72;62.89
77023;BME280;65952;51.440;-2.054;2023-03-24T13:14:40;98423.13;;;12.70;63.60
77023;BME280;65952;51.440;-2.054;2023-03-24T13:17:37;98427.31;;;12.54;64.17
77023;BME280;65952;51.440;-2.054;2023-03-24T13:20:03;98427.13;;;12.49;64.23
77023;BME280;65952;51.440;-2.054;2023-03-24T13:22:33;98428.56;;;12.51;64.05
77023;BME280;65952;51.440;-2.054;2023-03-24T13:25:00;98426.59;;;12.59;65.55
77023;BME280;65952;51.440;-2.054;2023-03-24T13:27:35;98424.66;;;12.66;65.72
77023;BME280;65952;51.440;-2.054;2023-03-24T13:32:54;98426.03;;;12.38;62.51
77023;BME280;65952;51.440;-2.054;2023-03-24T13:41:06;98434.78;;;12.33;62.05
77023;BME280;65952;51.440;-2.054;2023-03-24T13:43:35;98437.19;;;12.42;62.75
77023;BME280;65952;51.440;-2.054;2023-03-24T13:46:06;98428.72;;;12.57;63.58
77023;BME280;65952;51.440;-2.054;2023-03-24T13:48:40;98433.53;;;12.97;62.27
77023;BME280;65952;51.440;-2.054;2023-03-24T13:51:20;98431.28;;;13.36;61.08
77023;BME280;65952;51.440;-2.054;2023-03-24T13:59:08;98403.41;;;13.78;59.18
77023;BME280;65952;51.440;-2.054;2023-03-24T14:02:08;98418.53;;;13.79;57.90
77023;BME280;65952;51.440;-2.054;2023-03-24T14:04:46;98404.94;;;13.50;57.96
77023;BME280;65952;51.440;-2.054;2023-03-24T14:20:43;98395.34;;;13.00;60.04
77023;BME280;65952;51.440;-2.054;2023-03-24T14:28:43;98408.09;;;13.71;57.95
77023;BME280;65952;51.440;-2.054;2023-03-24T14:36:24;98407.09;;;13.06;58.06
77023;BME280;65952;51.440;-2.054;2023-03-24T14:38:50;98411.81;;;12.49;59.84
77023;BME280;65952;51.440;-2.054;2023-03-24T14:41:26;98423.97;;;12.22;61.81
77023;BME280;65952;51.440;-2.054;2023-03-24T14:43:55;98415.41;;;11.69;64.93
77023;BME280;65952;51.440;-2.054;2023-03-24T14:51:49;98393.09;;;12.24;65.63
77023;BME280;65952;51.440;-2.054;2023-03-24T14:56:51;98396.53;;;13.04;61.81
77023;BME280;65952;51.440;-2.054;2023-03-24T14:59:32;98376.63;;;13.05;61.22
77023;BME280;65952;51.440;-2.054;2023-03-24T15:02:15;98377.88;;;12.48;62.48
77023;BME280;65952;51.440;-2.054;2023-03-24T15:08:12;98390.72;;;12.16;63.15
77023;BME280;65952;51.440;-2.054;2023-03-24T15:11:04;98402.06;;;12.18;64.05
77023;BME280;65952;51.440;-2.054;2023-03-24T15:13:32;98398.50;;;12.24;63.92
77023;BME280;65952;51.440;-2.054;2023-03-24T15:15:59;98394.53;;;12.27;64.30
77023;BME280;65952;51.440;-2.054;2023-03-24T15:18:25;98398.75;;;12.34;64.00
77023;BME280;65952;51.440;-2.054;2023-03-24T15:20:51;98402.63;;;12.39;64.22
77023;BME280;65952;51.440;-2.054;2023-03-24T15:23:20;98413.25;;;12.33;64.22
77023;BME280;65952;51.440;-2.054;2023-03-24T15:25:46;98425.38;;;12.24;65.03
77023;BME280;65952;51.440;-2.054;2023-03-24T15:28:25;98418.63;;;11.78;67.76
77023;BME280;65952;51.440;-2.054;2023-03-24T15:30:51;98416.63;;;11.48;68.92
77023;BME280;65952;51.440;-2.054;2023-03-24T15:33:17;98430.31;;;11.14;70.03
77023;BME280;65952;51.440;-2.054;2023-03-24T15:35:44;98425.72;;;10.96;70.33
77023;BME280;65952;51.440;-2.054;2023-03-24T15:38:25;98433.94;;;11.01;70.71